createdAt,value
2023-01-17T00:01:37.067Z,2.8
2023-01-17T00:06:36.924Z,2.8
2023-01-17T00:11:36.921Z,2.8
2023-01-17T00:16:37.040Z,2.9
2023-01-17T00:21:36.934Z,3
2023-01-17T00:26:36.995Z,3.1
2023-01-17T00:31:37.023Z,3.2
2023-01-17T00:36:36.986Z,3.2
2023-01-17T00:41:36.817Z,3.3
2023-01-17T00:46:36.789Z,3.4
2023-01-17T00:51:36.788Z,3.4
2023-01-17T00:56:36.774Z,3.4
2023-01-17T01:01:36.737Z,3.4
2023-01-17T01:06:36.729Z,3.3
2023-01-17T01:11:36.715Z,3.4
2023-01-17T01:16:36.680Z,3.4
2023-01-17T01:21:36.670Z,3.5
2023-01-17T01:26:36.651Z,3.4
2023-01-17T01:31:36.636Z,3.4
2023-01-17T01:36:36.617Z,3.4
2023-01-17T01:41:36.710Z,3.4
2023-01-17T01:46:36.633Z,3.5
2023-01-17T01:51:36.561Z,3.5
2023-01-17T01:56:36.552Z,3.4
2023-01-17T02:01:36.537Z,3.4
2023-01-17T02:06:36.516Z,3.4
2023-01-17T02:11:36.500Z,3.3
2023-01-17T02:16:36.478Z,3.3
2023-01-17T02:21:36.460Z,3.3
2023-01-17T02:26:36.454Z,3.3
2023-01-17T02:31:36.422Z,3.3
2023-01-17T02:36:36.402Z,3.3
2023-01-17T02:41:36.388Z,3.3
2023-01-17T02:46:36.381Z,3.3
2023-01-17T02:51:36.358Z,3.3
2023-01-17T02:56:36.329Z,3.3
2023-01-17T03:01:36.316Z,3.3
2023-01-17T03:06:36.300Z,3.3
2023-01-17T03:11:36.285Z,3.3
2023-01-17T03:16:36.275Z,3.2
2023-01-17T03:21:36.260Z,3.2
2023-01-17T03:26:36.256Z,3.2
2023-01-17T03:31:36.217Z,3.1
2023-01-17T03:36:36.193Z,3.1
2023-01-17T03:41:36.184Z,3.1
2023-01-17T03:46:36.174Z,3.1
2023-01-17T03:51:36.147Z,3.1
2023-01-17T03:56:36.137Z,3.1
2023-01-17T04:01:36.112Z,3.1
2023-01-17T04:06:36.120Z,3.1
2023-01-17T04:11:36.083Z,3.1
2023-01-17T04:16:36.069Z,3.1
2023-01-17T04:21:36.066Z,3.1
2023-01-17T04:26:36.054Z,3.1
2023-01-17T04:31:36.057Z,3.1
2023-01-17T04:36:35.999Z,3.1
2023-01-17T04:41:35.996Z,3.1
2023-01-17T04:46:35.957Z,3.1
2023-01-17T04:51:35.938Z,3.1
2023-01-17T04:56:35.923Z,3.1
2023-01-17T05:01:35.908Z,3.1
2023-01-17T05:06:35.907Z,3
2023-01-17T05:11:35.870Z,3
2023-01-17T05:16:35.850Z,3
2023-01-17T05:21:35.858Z,2.9
2023-01-17T05:26:35.818Z,2.9
2023-01-17T05:31:35.797Z,2.8
2023-01-17T05:36:35.807Z,2.8
2023-01-17T05:41:35.770Z,2.8
2023-01-17T05:46:35.757Z,2.7
2023-01-17T05:51:35.736Z,2.7
2023-01-17T05:56:35.718Z,2.7
2023-01-17T06:01:35.731Z,2.6
2023-01-17T06:06:35.686Z,2.5
2023-01-17T06:11:35.670Z,2.4
2023-01-17T06:16:35.657Z,2.4
2023-01-17T06:21:35.644Z,2.5
2023-01-17T06:26:35.629Z,2.4
2023-01-17T06:31:35.594Z,2.4
2023-01-17T06:36:35.585Z,2.4
2023-01-17T06:41:35.581Z,2.3
2023-01-17T06:46:35.547Z,2.3
2023-01-17T06:51:35.526Z,2.2
2023-01-17T06:56:35.525Z,2.2
2023-01-17T07:01:35.519Z,2.1
2023-01-17T07:06:35.475Z,2.1
2023-01-17T07:11:35.462Z,2.1
2023-01-17T07:16:35.453Z,2
2023-01-17T07:21:35.428Z,1.9
2023-01-17T07:26:35.413Z,1.9
2023-01-17T07:31:35.431Z,1.8
2023-01-17T07:36:35.380Z,1.8
2023-01-17T07:41:35.388Z,1.8
2023-01-17T07:46:35.362Z,1.7
2023-01-17T07:51:35.426Z,1.7
2023-01-17T07:56:35.339Z,1.7
2023-01-17T08:01:35.486Z,1.6
2023-01-17T08:06:35.304Z,1.6
2023-01-17T08:11:35.347Z,1.5
2023-01-17T08:21:35.284Z,1.5
2023-01-17T08:31:35.260Z,1.7
2023-01-17T08:36:35.187Z,1.8
2023-01-17T08:41:35.253Z,1.9
2023-01-17T08:46:35.294Z,1.9
2023-01-17T08:51:35.125Z,1.9
2023-01-17T08:56:35.130Z,2
2023-01-17T09:01:35.136Z,2.1
2023-01-17T09:06:35.114Z,2.2
2023-01-17T09:11:35.062Z,2.2
2023-01-17T09:16:35.069Z,2.4
2023-01-17T09:21:35.062Z,2.5
2023-01-17T09:26:35.069Z,2.6
2023-01-17T09:31:35.204Z,2.7
2023-01-17T09:36:35.004Z,2.9
2023-01-17T09:41:35.096Z,3
2023-01-17T09:46:34.942Z,3.1
2023-01-17T09:51:34.917Z,3.2
2023-01-17T09:56:34.963Z,3.4
2023-01-17T10:01:34.909Z,3.4
2023-01-17T10:06:34.925Z,3.3
2023-01-17T10:11:34.936Z,3.3
2023-01-17T10:16:34.915Z,3.2
2023-01-17T10:21:34.832Z,3.2
2023-01-17T10:26:34.950Z,3.2
2023-01-17T10:31:34.777Z,3.3
2023-01-17T10:36:34.873Z,3.5
2023-01-17T10:41:34.905Z,3.7
2023-01-17T10:46:34.862Z,4
2023-01-17T10:51:34.851Z,4.2
2023-01-17T10:56:34.697Z,4.5
2023-01-17T11:01:34.672Z,4.8
2023-01-17T11:06:34.768Z,4.8
2023-01-17T11:11:34.641Z,4.9
2023-01-17T11:16:34.685Z,5
2023-01-17T11:21:34.702Z,5
2023-01-17T11:26:34.687Z,5.1
2023-01-17T11:31:34.591Z,5
2023-01-17T11:36:34.614Z,5
2023-01-17T11:41:34.528Z,5
2023-01-17T11:46:34.671Z,5.2
2023-01-17T11:51:34.578Z,5.2
2023-01-17T11:56:34.467Z,5.3
2023-01-17T12:01:34.568Z,5.5
2023-01-17T12:06:34.460Z,5.5
2023-01-17T12:11:34.550Z,5.6
2023-01-17T12:16:34.431Z,5.5
2023-01-17T12:21:34.396Z,5.6
2023-01-17T12:26:34.550Z,5.7
2023-01-17T12:31:34.395Z,5.7
2023-01-17T12:36:34.514Z,5.8
2023-01-17T12:41:34.486Z,5.8
2023-01-17T12:46:34.377Z,5.8
2023-01-17T12:56:34.356Z,5.8
2023-01-17T13:01:34.239Z,5.8
2023-01-17T13:06:34.354Z,5.6
2023-01-17T13:11:34.287Z,5.4
2023-01-17T13:16:34.182Z,5.4
2023-01-17T13:21:34.279Z,5.3
2023-01-17T13:26:34.144Z,5.2
2023-01-17T13:31:34.161Z,5.2
2023-01-17T13:36:34.162Z,5.2
2023-01-17T13:41:34.227Z,5.3
2023-01-17T13:46:34.081Z,5.4
2023-01-17T13:51:34.066Z,5.4
2023-01-17T13:56:34.065Z,5.4
2023-01-17T14:01:34.059Z,5.4
2023-01-17T14:06:34.020Z,5.4
2023-01-17T14:11:33.976Z,5.4
2023-01-17T14:16:33.956Z,5.4
2023-01-17T14:21:33.945Z,5.5
2023-01-17T14:26:33.928Z,5.4
2023-01-17T14:31:33.917Z,5.4
2023-01-17T14:36:33.889Z,5.4
2023-01-17T14:41:33.867Z,5.3
2023-01-17T14:46:33.863Z,5.3
2023-01-17T14:51:33.838Z,5.3
2023-01-17T14:56:33.832Z,5.2
2023-01-17T15:01:33.875Z,5.2
2023-01-17T15:06:33.833Z,5.1
2023-01-17T15:11:33.763Z,5.1
2023-01-17T15:16:33.758Z,5
2023-01-17T15:21:33.767Z,5
2023-01-17T15:26:33.697Z,5
2023-01-17T15:31:33.683Z,4.9
2023-01-17T15:36:33.669Z,4.9
2023-01-17T15:41:33.651Z,4.9
2023-01-17T15:46:33.644Z,4.8
2023-01-17T15:51:33.614Z,4.8
2023-01-17T15:56:33.695Z,4.6
2023-01-17T16:01:33.584Z,4.4
2023-01-17T16:06:33.562Z,4.3
2023-01-17T16:11:33.538Z,4.2
2023-01-17T16:16:33.549Z,4.1
2023-01-17T16:21:33.524Z,4.1
2023-01-17T16:26:33.492Z,4
2023-01-17T16:31:33.486Z,4
2023-01-17T16:36:33.456Z,4
2023-01-17T16:41:33.441Z,3.9
2023-01-17T16:46:33.419Z,3.8
2023-01-17T16:51:33.457Z,3.7
2023-01-17T16:56:33.402Z,3.6
2023-01-17T17:01:33.370Z,3.5
2023-01-17T17:06:33.360Z,3.4
2023-01-17T17:11:33.368Z,3.4
2023-01-17T17:16:33.408Z,3.3
2023-01-17T17:21:33.314Z,3.2
2023-01-17T17:26:33.349Z,3.2
2023-01-17T17:31:33.361Z,3.1
2023-01-17T17:36:33.266Z,3
2023-01-17T17:41:33.228Z,3
2023-01-17T17:46:33.217Z,3
2023-01-17T17:51:33.202Z,3
2023-01-17T17:56:33.288Z,2.9
2023-01-17T18:01:33.164Z,2.9
2023-01-17T18:06:33.145Z,2.9
2023-01-17T18:16:33.112Z,2.9
2023-01-17T18:21:33.093Z,2.8
2023-01-17T18:26:33.078Z,2.8
2023-01-17T18:31:33.061Z,2.8
2023-01-17T18:36:33.082Z,2.8
2023-01-17T18:41:33.020Z,2.8
2023-01-17T18:46:33.009Z,2.8
2023-01-17T18:51:32.994Z,2.7
2023-01-17T18:56:32.996Z,2.7
2023-01-17T19:01:32.962Z,2.7
2023-01-17T19:06:32.938Z,2.7
2023-01-17T19:11:32.921Z,2.6
2023-01-17T19:16:32.900Z,2.5
2023-01-17T19:21:32.890Z,2.4
2023-01-17T19:26:32.958Z,2.4
2023-01-17T19:31:32.933Z,2.3
2023-01-17T19:36:32.854Z,2.2
2023-01-17T19:41:32.820Z,2.2
2023-01-17T19:46:32.889Z,2.2
2023-01-17T19:51:32.790Z,2.1
2023-01-17T19:56:32.779Z,2.1
2023-01-17T20:01:32.755Z,2
2023-01-17T20:06:32.761Z,2
2023-01-17T20:11:32.719Z,2
2023-01-17T20:16:32.705Z,1.9
2023-01-17T20:21:32.738Z,1.9
2023-01-17T20:26:32.688Z,1.9
2023-01-17T20:31:32.654Z,1.8
2023-01-17T20:36:32.666Z,1.8
2023-01-17T20:41:32.640Z,1.8
2023-01-17T20:46:32.652Z,1.8
2023-01-17T20:51:32.587Z,1.7
2023-01-17T20:56:32.675Z,1.7
2023-01-17T21:01:32.548Z,1.7
2023-01-17T21:06:32.597Z,1.7
2023-01-17T21:11:32.536Z,1.7
2023-01-17T21:16:32.502Z,1.6
2023-01-17T21:21:32.511Z,1.6
2023-01-17T21:26:32.480Z,1.6
2023-01-17T21:31:32.459Z,1.6
2023-01-17T21:36:32.425Z,1.6
2023-01-17T21:41:32.416Z,1.6
2023-01-17T21:46:32.402Z,1.5
2023-01-17T21:51:32.387Z,1.5
2023-01-17T21:56:32.379Z,1.5
2023-01-17T22:01:32.372Z,1.5
2023-01-17T22:06:32.405Z,1.5
2023-01-17T22:11:32.317Z,1.4
2023-01-17T22:16:32.299Z,1.4
2023-01-17T22:21:32.360Z,1.4
2023-01-17T22:26:32.287Z,1.4
2023-01-17T22:31:32.249Z,1.4
2023-01-17T22:36:32.286Z,1.3
2023-01-17T22:41:32.217Z,1.3
2023-01-17T22:46:32.201Z,1.4
2023-01-17T22:51:32.185Z,1.3
2023-01-17T22:56:32.176Z,1.3
2023-01-17T23:01:32.152Z,1.3
2023-01-17T23:06:32.131Z,1.3
2023-01-17T23:11:32.123Z,1.3
2023-01-17T23:16:32.102Z,1.3
2023-01-17T23:21:32.106Z,1.3
2023-01-17T23:26:32.075Z,1.3
2023-01-17T23:31:32.070Z,1.2
2023-01-17T23:36:32.043Z,1.2
2023-01-17T23:41:32.040Z,1.2
2023-01-17T23:46:32.028Z,1.2
2023-01-17T23:51:32.007Z,1.2
2023-01-17T23:56:31.973Z,1.1
